map of AXT home
AXT - Airport
Location
City:  Akita, Akita, Japan
Name:Akita Airport
ICAO:RJSK
IATA:AXT

Details
Type:Airport (Aerodrome, Airfield)
Use:Public/Civil
Latitude:39°36'56"N (39.615556)
Longitude:140°13'07"E (140.218611)
Datum:WGS 1984
Elevation:313 ft (95 m)
Variation:8.76°W (WMM2015v2 magnetic declination)
-0.06° annual change
Runways:1
Longest:8200 × 200 ft (2499 × 61 m), paved

Time
Time Zone:UTC+9
Local Time:

Weather
METAR:RJSK 041200Z 29017KT 9999 -SHSN FEW030 BKN040 M01/M09 Q1019
TAF:RJSK 041105Z 0412/0518 29013KT 9999 -SHSN FEW010 SCT020 BKN030
TEMPO 0412/0418 29015G25KT 0700 SHSN FEW003 BKN005 BKN008
TEMPO 0418/0500 1500 -SHSN FEW005 BKN008 BKN015
BECMG 0506/0509 13004KT
TEMPO 0509/0518 1500 -SHSN FEW005 BKN008 BKN015

Related Locations
Nearby:
Farthest:SJEN: 11581 mi / 18637 km
Santa Vitória do Palmar [Pista Plá e Silva], RS, BR

Find:

   beyond  
but within

Other Information
Maps:
NOTAMs:
Links:
Sources:

  
  • flag of Japan
  • flag of Akita
  • flag of Akita
  

Sectional Chart

Flight Planning
at skyvector.com

Satellite Image

Google Maps Satellite view

 

Copyright © 2004-2019 Karl L. Swartz. All rights reserved.
The Great Circle Mapper name and logo are trademarks of the Great Circle Mapper.
All other trademarks mentioned herein belong to their respective owners.
Please see credits for attibutions and further copyright information.

  Follow gcmap on Facebook Follow gcmap on Twitter GCmap on LinkedIn

hCard Microformat

Geo Microformat